Portada
METAR-TAF:

METAR-TAF

Aeropuertos :

Aeródromo Henderson

Midway, Estados Unidos

latitud: 28-13N, longitud: 177-22W, altitud: 4 m

Observación

El informe se hizo hace 54 minutos, a las 04:56 UTC
Viento 11 kt del este
Temperatura 21°C
Humedad 83%
Presión 1026 hPa
Visibilidad: 14.5 km
Cielo despejado

METAR: PMDY 200456Z AUTO 09011KT 9SM CLR 21/18 A3030 RMK AO2 SLP258 P0001 T02110183

Hora: 19:50 (05:50 UTC)

Pronóstico

El informe se hizo hace 21 minutos, a las 05:29 UTC
Pronóstico válido del 20 a las 06 UTC al 21 a las 06 UTC
Viento 12 kt del este
Visibilidad: 10 km
Escasas nubes a una altura de 2500 ft
A partir de las 20 a las 2100 UTC
Viento 8 kt del este
Visibilidad: 10 km
Nubes dispersas a una altura de 3500 ft
chaparrones en las proximidades

TAF: PMDY 200529Z 2006/2106 10012KT P6SM FEW025 FM202100 10008KT P6SM VCSH SCT035

Observaciones y pronósticos meteorológicos de más de 4000 aeropuertos (mensajes METAR y TAF).

Los puntos amarillos y rojos representan las estaciones disponibles.

Ponga el ratón en el punto deseado para ver el nombre de la estación.

Haga clic para ver las observaciones y los pronósticos meteorológicos.

Para cambiar el mapa : haga clic en los botones verdes con una cruz de color negro para hacer un zoom, en el botón verde con un guión para alejar o en las flechas verdes para mapas adyacentes.


METAR-TAF: